sensor_id;sensor_type;location;lat;lon;timestamp;temperature;humidity
27741;DHT22;15134;48.768;9.184;2023-03-14T00:00:48;11.00;99.90
27741;DHT22;15134;48.768;9.184;2023-03-14T00:03:14;10.90;99.90
27741;DHT22;15134;48.768;9.184;2023-03-14T00:05:39;10.90;99.90
27741;DHT22;15134;48.768;9.184;2023-03-14T00:08:05;10.90;99.90
27741;DHT22;15134;48.768;9.184;2023-03-14T00:10:31;10.90;99.90
27741;DHT22;15134;48.768;9.184;2023-03-14T00:12:57;10.80;99.90
27741;DHT22;15134;48.768;9.184;2023-03-14T00:15:22;10.80;99.90
27741;DHT22;15134;48.768;9.184;2023-03-14T00:17:48;10.80;99.90
27741;DHT22;15134;48.768;9.184;2023-03-14T00:20:14;10.80;99.90
27741;DHT22;15134;48.768;9.184;2023-03-14T00:22:41;10.80;99.90
27741;DHT22;15134;48.768;9.184;2023-03-14T00:25:09;10.80;99.90
27741;DHT22;15134;48.768;9.184;2023-03-14T00:27:35;10.80;99.90
27741;DHT22;15134;48.768;9.184;2023-03-14T00:30:02;10.80;99.90
27741;DHT22;15134;48.768;9.184;2023-03-14T00:32:28;10.80;99.90
27741;DHT22;15134;48.768;9.184;2023-03-14T00:34:54;10.80;99.90
27741;DHT22;15134;48.768;9.184;2023-03-14T00:37:20;10.80;99.90
27741;DHT22;15134;48.768;9.184;2023-03-14T00:39:46;10.80;99.90
27741;DHT22;15134;48.768;9.184;2023-03-14T00:42:11;10.80;99.90
27741;DHT22;15134;48.768;9.184;2023-03-14T00:44:37;10.80;99.90
27741;DHT22;15134;48.768;9.184;2023-03-14T00:47:06;10.80;99.90
27741;DHT22;15134;48.768;9.184;2023-03-14T00:49:32;10.90;99.90
27741;DHT22;15134;48.768;9.184;2023-03-14T00:51:57;10.90;99.90
27741;DHT22;15134;48.768;9.184;2023-03-14T00:54:23;10.90;99.90
27741;DHT22;15134;48.768;9.184;2023-03-14T00:56:49;10.90;99.90
27741;DHT22;15134;48.768;9.184;2023-03-14T00:59:15;10.80;99.90
27741;DHT22;15134;48.768;9.184;2023-03-14T01:01:41;10.90;99.90
27741;DHT22;15134;48.768;9.184;2023-03-14T01:04:07;10.90;99.90
27741;DHT22;15134;48.768;9.184;2023-03-14T01:06:33;10.90;99.90
27741;DHT22;15134;48.768;9.184;2023-03-14T01:08:59;10.90;99.90
27741;DHT22;15134;48.768;9.184;2023-03-14T01:11:31;10.90;99.90
27741;DHT22;15134;48.768;9.184;2023-03-14T01:13:58;11.00;99.90
27741;DHT22;15134;48.768;9.184;2023-03-14T01:16:27;11.00;99.90
27741;DHT22;15134;48.768;9.184;2023-03-14T01:18:53;11.00;99.90
27741;DHT22;15134;48.768;9.184;2023-03-14T01:23:48;11.00;99.90
27741;DHT22;15134;48.768;9.184;2023-03-14T01:26:15;11.00;99.90
27741;DHT22;15134;48.768;9.184;2023-03-14T01:28:41;11.00;99.90
27741;DHT22;15134;48.768;9.184;2023-03-14T01:31:09;11.00;99.90
27741;DHT22;15134;48.768;9.184;2023-03-14T01:33:36;11.00;99.90
27741;DHT22;15134;48.768;9.184;2023-03-14T01:36:02;11.00;99.90
27741;DHT22;15134;48.768;9.184;2023-03-14T01:38:29;11.00;99.90
27741;DHT22;15134;48.768;9.184;2023-03-14T01:40:56;11.00;99.90
27741;DHT22;15134;48.768;9.184;2023-03-14T01:43:22;11.00;99.90
27741;DHT22;15134;48.768;9.184;2023-03-14T01:48:55;11.00;99.90
27741;DHT22;15134;48.768;9.184;2023-03-14T01:51:34;11.00;99.90
27741;DHT22;15134;48.768;9.184;2023-03-14T01:56:53;11.00;99.90
27741;DHT22;15134;48.768;9.184;2023-03-14T01:59:21;10.90;99.90
27741;DHT22;15134;48.768;9.184;2023-03-14T02:01:48;10.90;99.90
27741;DHT22;15134;48.768;9.184;2023-03-14T02:04:15;10.90;99.90
27741;DHT22;15134;48.768;9.184;2023-03-14T02:06:52;10.90;99.90
27741;DHT22;15134;48.768;9.184;2023-03-14T02:09:22;10.80;99.90
27741;DHT22;15134;48.768;9.184;2023-03-14T02:11:49;10.80;99.90
27741;DHT22;15134;48.768;9.184;2023-03-14T02:14:36;10.80;99.90
27741;DHT22;15134;48.768;9.184;2023-03-14T02:17:31;10.80;99.90
27741;DHT22;15134;48.768;9.184;2023-03-14T02:22:45;10.80;99.90
27741;DHT22;15134;48.768;9.184;2023-03-14T02:27:57;10.80;99.90
27741;DHT22;15134;48.768;9.184;2023-03-14T02:30:27;10.70;99.90
27741;DHT22;15134;48.768;9.184;2023-03-14T02:33:04;10.70;99.90
27741;DHT22;15134;48.768;9.184;2023-03-14T02:35:35;10.70;99.90
27741;DHT22;15134;48.768;9.184;2023-03-14T02:40:47;10.70;99.90
27741;DHT22;15134;48.768;9.184;2023-03-14T02:43:14;10.70;99.90
27741;DHT22;15134;48.768;9.184;2023-03-14T02:45:46;10.70;99.90
27741;DHT22;15134;48.768;9.184;2023-03-14T02:48:22;10.70;99.90
27741;DHT22;15134;48.768;9.184;2023-03-14T02:50:52;10.70;99.90
27741;DHT22;15134;48.768;9.184;2023-03-14T02:53:21;10.70;99.90
27741;DHT22;15134;48.768;9.184;2023-03-14T02:55:49;10.70;99.90
27741;DHT22;15134;48.768;9.184;2023-03-14T02:58:18;10.70;99.90
27741;DHT22;15134;48.768;9.184;2023-03-14T03:00:47;10.70;99.90
27741;DHT22;15134;48.768;9.184;2023-03-14T03:03:13;10.70;99.90
27741;DHT22;15134;48.768;9.184;2023-03-14T03:05:39;10.60;99.90
27741;DHT22;15134;48.768;9.184;2023-03-14T03:08:05;10.60;99.90
27741;DHT22;15134;48.768;9.184;2023-03-14T03:10:32;10.60;99.90
27741;DHT22;15134;48.768;9.184;2023-03-14T03:12:58;10.60;99.90
27741;DHT22;15134;48.768;9.184;2023-03-14T03:15:25;10.60;99.90
27741;DHT22;15134;48.768;9.184;2023-03-14T03:17:51;10.60;99.90
27741;DHT22;15134;48.768;9.184;2023-03-14T03:20:17;10.60;99.90
27741;DHT22;15134;48.768;9.184;2023-03-14T03:22:43;10.60;99.90
27741;DHT22;15134;48.768;9.184;2023-03-14T03:25:09;10.60;99.90
27741;DHT22;15134;48.768;9.184;2023-03-14T03:27:37;10.50;99.90
27741;DHT22;15134;48.768;9.184;2023-03-14T03:30:05;10.50;99.90
27741;DHT22;15134;48.768;9.184;2023-03-14T03:32:32;10.50;99.90
27741;DHT22;15134;48.768;9.184;2023-03-14T03:34:58;10.50;99.90
27741;DHT22;15134;48.768;9.184;2023-03-14T03:37:24;10.50;99.90
27741;DHT22;15134;48.768;9.184;2023-03-14T03:39:51;10.40;99.90
27741;DHT22;15134;48.768;9.184;2023-03-14T03:42:17;10.40;99.90
27741;DHT22;15134;48.768;9.184;2023-03-14T03:44:44;10.40;99.90
27741;DHT22;15134;48.768;9.184;2023-03-14T03:47:10;10.40;99.90
27741;DHT22;15134;48.768;9.184;2023-03-14T03:49:36;10.40;99.90
27741;DHT22;15134;48.768;9.184;2023-03-14T03:52:02;10.40;99.90
27741;DHT22;15134;48.768;9.184;2023-03-14T03:54:27;10.40;99.90
27741;DHT22;15134;48.768;9.184;2023-03-14T03:56:54;10.40;99.90
27741;DHT22;15134;48.768;9.184;2023-03-14T03:59:20;10.40;99.90
27741;DHT22;15134;48.768;9.184;2023-03-14T04:01:47;10.30;99.90
27741;DHT22;15134;48.768;9.184;2023-03-14T04:04:13;10.30;99.90
27741;DHT22;15134;48.768;9.184;2023-03-14T04:06:39;10.30;99.90
27741;DHT22;15134;48.768;9.184;2023-03-14T04:09:05;10.30;99.90
27741;DHT22;15134;48.768;9.184;2023-03-14T04:11:39;10.20;99.90
27741;DHT22;15134;48.768;9.184;2023-03-14T04:14:16;10.20;99.90
27741;DHT22;15134;48.768;9.184;2023-03-14T04:16:42;10.20;99.90
27741;DHT22;15134;48.768;9.184;2023-03-14T04:19:12;10.20;99.90
27741;DHT22;15134;48.768;9.184;2023-03-14T04:21:38;10.20;99.90
27741;DHT22;15134;48.768;9.184;2023-03-14T04:24:08;10.20;99.90
27741;DHT22;15134;48.768;9.184;2023-03-14T04:26:34;10.20;99.90
27741;DHT22;15134;48.768;9.184;2023-03-14T04:29:00;10.20;99.90
27741;DHT22;15134;48.768;9.184;2023-03-14T04:31:26;10.20;99.90
27741;DHT22;15134;48.768;9.184;2023-03-14T04:33:52;10.20;99.90
27741;DHT22;15134;48.768;9.184;2023-03-14T04:36:24;10.20;99.90
27741;DHT22;15134;48.768;9.184;2023-03-14T04:38:51;10.20;99.90
27741;DHT22;15134;48.768;9.184;2023-03-14T04:41:19;10.20;99.90
27741;DHT22;15134;48.768;9.184;2023-03-14T04:43:45;10.20;99.90
27741;DHT22;15134;48.768;9.184;2023-03-14T04:46:12;10.20;99.90
27741;DHT22;15134;48.768;9.184;2023-03-14T04:48:38;10.20;99.90
27741;DHT22;15134;48.768;9.184;2023-03-14T04:51:06;10.20;99.90
27741;DHT22;15134;48.768;9.184;2023-03-14T04:53:33;10.20;99.90
27741;DHT22;15134;48.768;9.184;2023-03-14T04:56:03;10.20;99.90
27741;DHT22;15134;48.768;9.184;2023-03-14T04:58:35;10.20;99.90
27741;DHT22;15134;48.768;9.184;2023-03-14T05:01:05;10.20;99.90
27741;DHT22;15134;48.768;9.184;2023-03-14T05:03:40;10.20;99.90
27741;DHT22;15134;48.768;9.184;2023-03-14T05:06:24;10.10;99.90
27741;DHT22;15134;48.768;9.184;2023-03-14T05:08:53;10.10;99.90
27741;DHT22;15134;48.768;9.184;2023-03-14T05:11:42;10.10;99.90
27741;DHT22;15134;48.768;9.184;2023-03-14T05:14:28;10.00;99.90
27741;DHT22;15134;48.768;9.184;2023-03-14T05:17:10;10.00;99.90
27741;DHT22;15134;48.768;9.184;2023-03-14T05:19:47;10.00;99.90
27741;DHT22;15134;48.768;9.184;2023-03-14T05:22:39;10.00;99.90
27741;DHT22;15134;48.768;9.184;2023-03-14T05:25:18;9.90;99.90
27741;DHT22;15134;48.768;9.184;2023-03-14T05:27:57;10.00;99.90
27741;DHT22;15134;48.768;9.184;2023-03-14T05:30:45;10.00;99.90
27741;DHT22;15134;48.768;9.184;2023-03-14T05:33:41;10.00;99.90
27741;DHT22;15134;48.768;9.184;2023-03-14T05:36:27;10.00;99.90
27741;DHT22;15134;48.768;9.184;2023-03-14T05:39:09;10.00;99.90
27741;DHT22;15134;48.768;9.184;2023-03-14T05:41:53;10.10;99.90
27741;DHT22;15134;48.768;9.184;2023-03-14T05:44:44;10.00;99.90
27741;DHT22;15134;48.768;9.184;2023-03-14T05:47:30;10.00;99.90
27741;DHT22;15134;48.768;9.184;2023-03-14T05:50:34;10.00;99.90
27741;DHT22;15134;48.768;9.184;2023-03-14T05:53:25;10.00;99.90
27741;DHT22;15134;48.768;9.184;2023-03-14T05:56:14;10.00;99.90
27741;DHT22;15134;48.768;9.184;2023-03-14T05:58:52;10.00;99.90
27741;DHT22;15134;48.768;9.184;2023-03-14T06:01:29;10.00;99.90
27741;DHT22;15134;48.768;9.184;2023-03-14T06:04:10;10.00;99.90
27741;DHT22;15134;48.768;9.184;2023-03-14T06:06:36;10.00;99.90
27741;DHT22;15134;48.768;9.184;2023-03-14T06:09:02;10.10;99.90
27741;DHT22;15134;48.768;9.184;2023-03-14T06:11:31;10.10;99.90
27741;DHT22;15134;48.768;9.184;2023-03-14T06:13:57;10.10;99.90
27741;DHT22;15134;48.768;9.184;2023-03-14T06:16:22;10.10;99.90
27741;DHT22;15134;48.768;9.184;2023-03-14T06:18:48;10.20;99.90
27741;DHT22;15134;48.768;9.184;2023-03-14T06:21:17;10.30;99.90
27741;DHT22;15134;48.768;9.184;2023-03-14T06:23:43;10.30;99.90
27741;DHT22;15134;48.768;9.184;2023-03-14T06:26:09;10.30;99.90
27741;DHT22;15134;48.768;9.184;2023-03-14T06:28:38;10.30;99.90
27741;DHT22;15134;48.768;9.184;2023-03-14T06:31:04;10.20;99.90
27741;DHT22;15134;48.768;9.184;2023-03-14T06:33:37;10.20;99.90
27741;DHT22;15134;48.768;9.184;2023-03-14T06:36:03;10.20;99.90
27741;DHT22;15134;48.768;9.184;2023-03-14T06:38:29;10.30;99.90
27741;DHT22;15134;48.768;9.184;2023-03-14T06:41:06;10.40;99.90
27741;DHT22;15134;48.768;9.184;2023-03-14T06:43:37;10.50;99.90
27741;DHT22;15134;48.768;9.184;2023-03-14T06:46:05;10.50;99.90
27741;DHT22;15134;48.768;9.184;2023-03-14T06:48:32;10.60;99.90
27741;DHT22;15134;48.768;9.184;2023-03-14T06:50:58;10.60;99.90
27741;DHT22;15134;48.768;9.184;2023-03-14T06:53:24;10.60;99.90
27741;DHT22;15134;48.768;9.184;2023-03-14T06:55:50;10.60;99.90
27741;DHT22;15134;48.768;9.184;2023-03-14T06:58:17;10.60;99.90
27741;DHT22;15134;48.768;9.184;2023-03-14T07:00:44;10.70;99.90
27741;DHT22;15134;48.768;9.184;2023-03-14T07:03:14;10.80;99.90
27741;DHT22;15134;48.768;9.184;2023-03-14T07:05:43;11.00;99.90
27741;DHT22;15134;48.768;9.184;2023-03-14T07:08:09;11.20;99.90
27741;DHT22;15134;48.768;9.184;2023-03-14T07:10:35;11.30;99.90
27741;DHT22;15134;48.768;9.184;2023-03-14T07:13:01;11.30;99.90
27741;DHT22;15134;48.768;9.184;2023-03-14T07:15:30;11.20;99.90
27741;DHT22;15134;48.768;9.184;2023-03-14T07:18:00;11.10;99.90
27741;DHT22;15134;48.768;9.184;2023-03-14T07:20:27;11.10;99.90
27741;DHT22;15134;48.768;9.184;2023-03-14T07:22:54;11.20;99.90
27741;DHT22;15134;48.768;9.184;2023-03-14T07:25:31;11.30;99.90
27741;DHT22;15134;48.768;9.184;2023-03-14T07:27:57;11.50;99.90
27741;DHT22;15134;48.768;9.184;2023-03-14T07:30:23;11.50;99.90
27741;DHT22;15134;48.768;9.184;2023-03-14T07:32:50;11.50;99.90
27741;DHT22;15134;48.768;9.184;2023-03-14T07:35:16;11.40;99.90
27741;DHT22;15134;48.768;9.184;2023-03-14T07:37:41;11.30;99.90
27741;DHT22;15134;48.768;9.184;2023-03-14T07:40:08;11.20;99.90
27741;DHT22;15134;48.768;9.184;2023-03-14T07:42:36;11.10;99.90
27741;DHT22;15134;48.768;9.184;2023-03-14T07:45:16;11.10;99.90
27741;DHT22;15134;48.768;9.184;2023-03-14T07:47:42;11.10;99.90
27741;DHT22;15134;48.768;9.184;2023-03-14T07:50:08;11.10;99.90
27741;DHT22;15134;48.768;9.184;2023-03-14T07:52:34;11.10;99.90
27741;DHT22;15134;48.768;9.184;2023-03-14T07:55:00;11.20;99.90
27741;DHT22;15134;48.768;9.184;2023-03-14T07:57:25;11.30;99.90
27741;DHT22;15134;48.768;9.184;2023-03-14T07:59:51;11.40;99.90
27741;DHT22;15134;48.768;9.184;2023-03-14T08:02:17;11.60;99.90
27741;DHT22;15134;48.768;9.184;2023-03-14T08:04:45;11.80;99.90
27741;DHT22;15134;48.768;9.184;2023-03-14T08:07:11;12.10;99.90
27741;DHT22;15134;48.768;9.184;2023-03-14T08:09:37;12.80;99.90
27741;DHT22;15134;48.768;9.184;2023-03-14T08:12:02;13.50;99.90
27741;DHT22;15134;48.768;9.184;2023-03-14T08:14:28;13.90;99.90
27741;DHT22;15134;48.768;9.184;2023-03-14T08:16:54;14.10;99.90
27741;DHT22;15134;48.768;9.184;2023-03-14T08:19:20;14.00;99.90
27741;DHT22;15134;48.768;9.184;2023-03-14T08:21:46;13.90;99.90
27741;DHT22;15134;48.768;9.184;2023-03-14T08:24:12;14.00;99.90
27741;DHT22;15134;48.768;9.184;2023-03-14T08:26:37;14.00;99.90
27741;DHT22;15134;48.768;9.184;2023-03-14T08:29:03;14.10;99.90
27741;DHT22;15134;48.768;9.184;2023-03-14T08:31:30;14.30;99.90
27741;DHT22;15134;48.768;9.184;2023-03-14T08:33:58;14.70;99.90
27741;DHT22;15134;48.768;9.184;2023-03-14T08:36:24;15.50;99.90
27741;DHT22;15134;48.768;9.184;2023-03-14T08:38:50;16.50;99.90
27741;DHT22;15134;48.768;9.184;2023-03-14T08:41:16;17.30;99.90
27741;DHT22;15134;48.768;9.184;2023-03-14T08:43:42;18.20;99.90
27741;DHT22;15134;48.768;9.184;2023-03-14T08:46:07;18.50;99.90
27741;DHT22;15134;48.768;9.184;2023-03-14T08:48:33;19.00;99.90
27741;DHT22;15134;48.768;9.184;2023-03-14T08:51:13;20.00;99.90
27741;DHT22;15134;48.768;9.184;2023-03-14T08:53:40;22.80;99.90
27741;DHT22;15134;48.768;9.184;2023-03-14T08:56:06;24.30;99.90
27741;DHT22;15134;48.768;9.184;2023-03-14T08:58:32;25.30;98.40
27741;DHT22;15134;48.768;9.184;2023-03-14T09:00:58;25.50;95.70
27741;DHT22;15134;48.768;9.184;2023-03-14T09:03:24;25.30;94.60
27741;DHT22;15134;48.768;9.184;2023-03-14T09:05:51;24.00;94.10
27741;DHT22;15134;48.768;9.184;2023-03-14T09:08:17;21.80;96.50
27741;DHT22;15134;48.768;9.184;2023-03-14T09:10:43;20.00;99.60
27741;DHT22;15134;48.768;9.184;2023-03-14T09:13:09;18.60;99.90
27741;DHT22;15134;48.768;9.184;2023-03-14T09:15:35;17.30;99.90
27741;DHT22;15134;48.768;9.184;2023-03-14T09:18:01;16.60;99.90
27741;DHT22;15134;48.768;9.184;2023-03-14T09:20:27;16.70;99.90
27741;DHT22;15134;48.768;9.184;2023-03-14T09:22:52;17.00;99.90
27741;DHT22;15134;48.768;9.184;2023-03-14T09:25:18;17.00;99.90
27741;DHT22;15134;48.768;9.184;2023-03-14T09:27:44;16.70;99.90
27741;DHT22;15134;48.768;9.184;2023-03-14T09:30:10;16.60;99.90
27741;DHT22;15134;48.768;9.184;2023-03-14T09:32:36;16.60;99.90
27741;DHT22;15134;48.768;9.184;2023-03-14T09:35:02;16.60;99.90
27741;DHT22;15134;48.768;9.184;2023-03-14T09:37:28;16.70;99.90
27741;DHT22;15134;48.768;9.184;2023-03-14T09:39:54;16.60;99.90
27741;DHT22;15134;48.768;9.184;2023-03-14T09:42:25;16.60;99.90
27741;DHT22;15134;48.768;9.184;2023-03-14T09:44:59;16.30;99.90
27741;DHT22;15134;48.768;9.184;2023-03-14T09:47:27;16.10;99.90
27741;DHT22;15134;48.768;9.184;2023-03-14T09:49:53;15.80;99.90
27741;DHT22;15134;48.768;9.184;2023-03-14T09:52:31;15.50;99.90
27741;DHT22;15134;48.768;9.184;2023-03-14T09:55:06;15.30;99.90
27741;DHT22;15134;48.768;9.184;2023-03-14T09:57:34;15.00;99.90
27741;DHT22;15134;48.768;9.184;2023-03-14T10:00:05;14.70;99.90
27741;DHT22;15134;48.768;9.184;2023-03-14T10:02:42;14.50;99.90
27741;DHT22;15134;48.768;9.184;2023-03-14T10:05:19;14.40;99.90
27741;DHT22;15134;48.768;9.184;2023-03-14T10:07:45;14.30;99.90
27741;DHT22;15134;48.768;9.184;2023-03-14T10:10:22;14.60;99.90
27741;DHT22;15134;48.768;9.184;2023-03-14T10:13:05;14.70;99.90
27741;DHT22;15134;48.768;9.184;2023-03-14T10:15:37;14.90;99.90
27741;DHT22;15134;48.768;9.184;2023-03-14T10:18:03;14.90;99.90
27741;DHT22;15134;48.768;9.184;2023-03-14T10:20:31;14.80;99.90
27741;DHT22;15134;48.768;9.184;2023-03-14T10:23:03;14.70;99.90
27741;DHT22;15134;48.768;9.184;2023-03-14T10:25:38;14.80;99.90
27741;DHT22;15134;48.768;9.184;2023-03-14T10:28:05;14.90;99.90
27741;DHT22;15134;48.768;9.184;2023-03-14T10:30:39;14.90;99.90
27741;DHT22;15134;48.768;9.184;2023-03-14T10:33:20;15.00;99.90
27741;DHT22;15134;48.768;9.184;2023-03-14T10:35:56;15.10;99.90
27741;DHT22;15134;48.768;9.184;2023-03-14T10:38:24;14.90;99.90
27741;DHT22;15134;48.768;9.184;2023-03-14T10:40:52;14.90;99.90
27741;DHT22;15134;48.768;9.184;2023-03-14T10:43:23;14.80;99.90
27741;DHT22;15134;48.768;9.184;2023-03-14T10:48:33;14.60;99.90
27741;DHT22;15134;48.768;9.184;2023-03-14T10:51:10;14.60;99.90
27741;DHT22;15134;48.768;9.184;2023-03-14T10:56:23;14.70;99.90
27741;DHT22;15134;48.768;9.184;2023-03-14T10:58:51;14.70;99.90
27741;DHT22;15134;48.768;9.184;2023-03-14T11:04:15;14.20;99.90
27741;DHT22;15134;48.768;9.184;2023-03-14T11:07:20;14.10;99.90
27741;DHT22;15134;48.768;9.184;2023-03-14T11:29:02;13.30;99.90
27741;DHT22;15134;48.768;9.184;2023-03-14T11:31:34;13.10;99.90
27741;DHT22;15134;48.768;9.184;2023-03-14T11:34:39;13.00;99.90
27741;DHT22;15134;48.768;9.184;2023-03-14T11:37:12;13.00;99.90
27741;DHT22;15134;48.768;9.184;2023-03-14T11:39:43;12.90;99.90
27741;DHT22;15134;48.768;9.184;2023-03-14T11:42:16;12.90;99.90
27741;DHT22;15134;48.768;9.184;2023-03-14T11:44:45;13.00;99.90
27741;DHT22;15134;48.768;9.184;2023-03-14T11:47:23;13.00;99.90
27741;DHT22;15134;48.768;9.184;2023-03-14T11:52:38;13.10;99.90
27741;DHT22;15134;48.768;9.184;2023-03-14T11:55:20;13.00;99.90
27741;DHT22;15134;48.768;9.184;2023-03-14T11:57:50;13.00;99.90
27741;DHT22;15134;48.768;9.184;2023-03-14T12:00:23;13.00;99.90
27741;DHT22;15134;48.768;9.184;2023-03-14T12:03:07;13.00;99.90
27741;DHT22;15134;48.768;9.184;2023-03-14T12:05:45;12.90;99.90
27741;DHT22;15134;48.768;9.184;2023-03-14T12:08:33;12.80;99.90
27741;DHT22;15134;48.768;9.184;2023-03-14T12:13:57;13.00;99.90
27741;DHT22;15134;48.768;9.184;2023-03-14T12:18:49;13.10;99.90
27741;DHT22;15134;48.768;9.184;2023-03-14T12:21:17;13.10;99.90
27741;DHT22;15134;48.768;9.184;2023-03-14T12:23:44;12.90;99.90
27741;DHT22;15134;48.768;9.184;2023-03-14T12:26:19;12.80;99.90
27741;DHT22;15134;48.768;9.184;2023-03-14T12:50:20;12.50;99.90
27741;DHT22;15134;48.768;9.184;2023-03-14T12:55:58;12.40;99.90
27741;DHT22;15134;48.768;9.184;2023-03-14T13:01:58;12.30;99.90
27741;DHT22;15134;48.768;9.184;2023-03-14T13:04:31;12.40;99.90
27741;DHT22;15134;48.768;9.184;2023-03-14T13:06:59;12.40;99.90
27741;DHT22;15134;48.768;9.184;2023-03-14T13:12:14;12.20;99.90
27741;DHT22;15134;48.768;9.184;2023-03-14T13:14:48;12.00;99.90
27741;DHT22;15134;48.768;9.184;2023-03-14T13:17:32;11.80;99.90
27741;DHT22;15134;48.768;9.184;2023-03-14T13:20:02;11.80;99.90
27741;DHT22;15134;48.768;9.184;2023-03-14T13:22:33;11.80;99.90
27741;DHT22;15134;48.768;9.184;2023-03-14T13:25:05;11.80;99.90
27741;DHT22;15134;48.768;9.184;2023-03-14T13:27:33;11.90;99.90
27741;DHT22;15134;48.768;9.184;2023-03-14T13:30:14;12.00;99.90
27741;DHT22;15134;48.768;9.184;2023-03-14T13:32:42;12.00;99.90
27741;DHT22;15134;48.768;9.184;2023-03-14T13:38:00;12.10;99.90
27741;DHT22;15134;48.768;9.184;2023-03-14T13:40:33;12.10;99.90
27741;DHT22;15134;48.768;9.184;2023-03-14T13:43:02;12.00;99.90
27741;DHT22;15134;48.768;9.184;2023-03-14T13:45:28;11.80;99.90
27741;DHT22;15134;48.768;9.184;2023-03-14T13:47:54;11.50;99.90
27741;DHT22;15134;48.768;9.184;2023-03-14T13:50:20;11.40;99.90
27741;DHT22;15134;48.768;9.184;2023-03-14T13:52:46;11.50;99.90
27741;DHT22;15134;48.768;9.184;2023-03-14T13:55:18;11.40;99.90
27741;DHT22;15134;48.768;9.184;2023-03-14T13:57:46;11.40;99.90
27741;DHT22;15134;48.768;9.184;2023-03-14T14:00:23;11.50;99.90
27741;DHT22;15134;48.768;9.184;2023-03-14T14:02:53;11.40;99.90
27741;DHT22;15134;48.768;9.184;2023-03-14T14:05:21;11.40;99.90
27741;DHT22;15134;48.768;9.184;2023-03-14T14:07:49;11.40;99.90
27741;DHT22;15134;48.768;9.184;2023-03-14T14:10:15;11.40;99.90
27741;DHT22;15134;48.768;9.184;2023-03-14T14:12:55;11.40;99.90
27741;DHT22;15134;48.768;9.184;2023-03-14T14:15:26;11.30;99.90
27741;DHT22;15134;48.768;9.184;2023-03-14T14:20:27;11.00;99.90
27741;DHT22;15134;48.768;9.184;2023-03-14T14:22:58;11.10;99.90
27741;DHT22;15134;48.768;9.184;2023-03-14T14:25:24;11.20;99.90
27741;DHT22;15134;48.768;9.184;2023-03-14T14:27:50;11.10;99.90
27741;DHT22;15134;48.768;9.184;2023-03-14T14:32:49;10.90;99.90
27741;DHT22;15134;48.768;9.184;2023-03-14T14:35:33;10.70;99.90
27741;DHT22;15134;48.768;9.184;2023-03-14T14:37:59;10.80;99.90
27741;DHT22;15134;48.768;9.184;2023-03-14T14:40:29;10.90;99.90
27741;DHT22;15134;48.768;9.184;2023-03-14T14:43:02;10.70;99.90
27741;DHT22;15134;48.768;9.184;2023-03-14T14:45:29;10.70;99.90
27741;DHT22;15134;48.768;9.184;2023-03-14T14:50:29;10.90;99.90
27741;DHT22;15134;48.768;9.184;2023-03-14T14:53:00;10.90;99.90
27741;DHT22;15134;48.768;9.184;2023-03-14T14:55:32;10.90;99.90
27741;DHT22;15134;48.768;9.184;2023-03-14T14:58:24;10.90;99.90
27741;DHT22;15134;48.768;9.184;2023-03-14T15:01:18;10.80;99.90
27741;DHT22;15134;48.768;9.184;2023-03-14T15:03:47;10.60;99.90
27741;DHT22;15134;48.768;9.184;2023-03-14T15:06:14;10.70;99.90
27741;DHT22;15134;48.768;9.184;2023-03-14T15:08:43;10.70;99.90
27741;DHT22;15134;48.768;9.184;2023-03-14T15:11:17;10.80;99.90
27741;DHT22;15134;48.768;9.184;2023-03-14T15:13:43;10.80;99.90
27741;DHT22;15134;48.768;9.184;2023-03-14T15:16:11;10.80;99.90
27741;DHT22;15134;48.768;9.184;2023-03-14T15:18:37;10.70;99.90
27741;DHT22;15134;48.768;9.184;2023-03-14T15:21:03;10.70;99.90
27741;DHT22;15134;48.768;9.184;2023-03-14T15:23:29;10.80;99.90
27741;DHT22;15134;48.768;9.184;2023-03-14T15:25:55;10.80;99.90
27741;DHT22;15134;48.768;9.184;2023-03-14T15:28:31;11.00;99.90
27741;DHT22;15134;48.768;9.184;2023-03-14T15:30:58;11.00;99.90
27741;DHT22;15134;48.768;9.184;2023-03-14T15:33:25;11.00;99.90
27741;DHT22;15134;48.768;9.184;2023-03-14T15:35:52;11.00;99.90
27741;DHT22;15134;48.768;9.184;2023-03-14T15:38:20;11.00;99.90
27741;DHT22;15134;48.768;9.184;2023-03-14T15:40:52;11.00;99.90
27741;DHT22;15134;48.768;9.184;2023-03-14T15:43:19;10.90;99.90
27741;DHT22;15134;48.768;9.184;2023-03-14T15:45:45;10.70;99.90
27741;DHT22;15134;48.768;9.184;2023-03-14T15:48:16;10.50;99.90
27741;DHT22;15134;48.768;9.184;2023-03-14T15:50:43;10.50;99.90
27741;DHT22;15134;48.768;9.184;2023-03-14T15:53:09;10.30;99.90
27741;DHT22;15134;48.768;9.184;2023-03-14T15:55:35;10.20;99.90
27741;DHT22;15134;48.768;9.184;2023-03-14T15:58:01;10.20;99.90
27741;DHT22;15134;48.768;9.184;2023-03-14T16:00:28;10.20;99.90
27741;DHT22;15134;48.768;9.184;2023-03-14T16:02:54;10.30;99.90
27741;DHT22;15134;48.768;9.184;2023-03-14T16:05:20;10.30;99.90
27741;DHT22;15134;48.768;9.184;2023-03-14T16:07:46;10.40;99.90
27741;DHT22;15134;48.768;9.184;2023-03-14T16:10:13;10.60;99.90
27741;DHT22;15134;48.768;9.184;2023-03-14T16:12:39;10.60;99.90
27741;DHT22;15134;48.768;9.184;2023-03-14T16:15:05;10.60;99.90
27741;DHT22;15134;48.768;9.184;2023-03-14T16:17:32;10.50;99.90
27741;DHT22;15134;48.768;9.184;2023-03-14T16:19:58;10.60;99.90
27741;DHT22;15134;48.768;9.184;2023-03-14T16:22:24;10.60;99.90
27741;DHT22;15134;48.768;9.184;2023-03-14T16:24:50;10.60;99.90
27741;DHT22;15134;48.768;9.184;2023-03-14T16:27:15;10.60;99.90
27741;DHT22;15134;48.768;9.184;2023-03-14T16:29:42;10.50;99.90
27741;DHT22;15134;48.768;9.184;2023-03-14T16:32:08;10.30;99.90
27741;DHT22;15134;48.768;9.184;2023-03-14T16:34:37;10.30;99.90
27741;DHT22;15134;48.768;9.184;2023-03-14T16:37:03;10.10;99.90
27741;DHT22;15134;48.768;9.184;2023-03-14T16:39:29;10.00;99.90
27741;DHT22;15134;48.768;9.184;2023-03-14T16:41:57;10.00;99.90
27741;DHT22;15134;48.768;9.184;2023-03-14T16:44:23;10.00;99.90
27741;DHT22;15134;48.768;9.184;2023-03-14T16:46:49;10.00;99.90
27741;DHT22;15134;48.768;9.184;2023-03-14T16:49:15;10.00;99.90
27741;DHT22;15134;48.768;9.184;2023-03-14T16:51:41;10.10;99.90
27741;DHT22;15134;48.768;9.184;2023-03-14T16:54:08;10.00;99.90
27741;DHT22;15134;48.768;9.184;2023-03-14T16:56:34;9.90;99.90
27741;DHT22;15134;48.768;9.184;2023-03-14T16:59:00;9.90;99.90
27741;DHT22;15134;48.768;9.184;2023-03-14T17:01:26;9.90;99.90
27741;DHT22;15134;48.768;9.184;2023-03-14T17:03:52;9.90;99.90
27741;DHT22;15134;48.768;9.184;2023-03-14T17:06:23;9.80;99.90
27741;DHT22;15134;48.768;9.184;2023-03-14T17:08:50;9.90;99.90
27741;DHT22;15134;48.768;9.184;2023-03-14T17:11:16;9.80;99.90
27741;DHT22;15134;48.768;9.184;2023-03-14T17:13:45;9.90;99.90
27741;DHT22;15134;48.768;9.184;2023-03-14T17:16:12;9.90;99.90
27741;DHT22;15134;48.768;9.184;2023-03-14T17:18:38;9.90;99.90
27741;DHT22;15134;48.768;9.184;2023-03-14T17:21:04;9.90;99.90